createdAt,value
2018-12-31T00:56:09.938Z,101.10
2018-12-31T05:52:21.497Z,111.60
2018-12-31T05:58:13.245Z,107.10
2018-12-31T06:25:51.846Z,115.10
2018-12-31T06:32:22.958Z,117.10
2018-12-31T06:38:58.744Z,104.40
2018-12-31T06:45:00.969Z,109.70
2018-12-31T06:50:50.134Z,103.80
2018-12-31T06:57:21.158Z,107.90
2018-12-31T07:30:18.424Z,87.10
2018-12-31T07:36:18.798Z,81.10
2018-12-31T07:42:04.966Z,77.80
2018-12-31T07:47:56.926Z,79.20
2018-12-31T07:53:54.400Z,87.50
2018-12-31T09:04:21.346Z,60.30
2018-12-31T09:53:12.569Z,60.30
2018-12-31T09:59:27.614Z,54.90
2018-12-31T10:04:44.341Z,53.30
2018-12-31T10:37:12.472Z,46.80
2018-12-31T10:47:59.797Z,45.10
2018-12-31T10:53:30.539Z,44.60
2018-12-31T11:04:21.650Z,46.10
2018-12-31T11:09:45.844Z,41.70
2018-12-31T11:15:05.346Z,39.50
2018-12-31T11:20:31.258Z,39.00
2018-12-31T11:36:32.454Z,38.40
2018-12-31T11:41:46.933Z,37.00
2018-12-31T11:47:12.771Z,39.30
2018-12-31T11:57:55.969Z,44.40
2018-12-31T12:08:48.069Z,48.10
2018-12-31T12:14:22.693Z,44.30
2018-12-31T12:19:47.737Z,43.40
2018-12-31T12:36:18.939Z,49.30
2018-12-31T12:41:32.690Z,40.10
2018-12-31T12:46:54.031Z,45.00
2018-12-31T12:52:10.243Z,38.50
2018-12-31T12:57:36.138Z,48.40
2018-12-31T13:02:49.090Z,44.50
2018-12-31T13:08:12.595Z,42.90
2018-12-31T13:13:36.523Z,44.70
2018-12-31T14:26:00.990Z,37.60
2018-12-31T14:38:17.342Z,33.60
2018-12-31T15:00:56.991Z,38.00
2018-12-31T16:29:15.503Z,48.00
2018-12-31T16:34:07.424Z,35.00
2018-12-31T16:38:59.129Z,30.20
2018-12-31T16:43:50.999Z,34.90
2018-12-31T16:48:43.005Z,37.10
2018-12-31T16:53:35.633Z,30.30
2018-12-31T16:58:27.721Z,29.00
2018-12-31T17:03:20.057Z,38.90
2018-12-31T17:08:13.257Z,33.70
2018-12-31T17:13:05.425Z,38.20
2018-12-31T17:17:57.466Z,33.80
2018-12-31T17:22:49.557Z,38.90
2018-12-31T17:27:41.611Z,27.60
2018-12-31T17:32:33.762Z,23.20
2018-12-31T17:37:25.913Z,27.30
2018-12-31T17:42:18.028Z,30.60
2018-12-31T17:47:10.142Z,24.90
2018-12-31T17:52:02.559Z,19.70
2018-12-31T17:56:55.870Z,27.00
2018-12-31T18:01:47.905Z,25.60
2018-12-31T18:06:40.059Z,20.20
2018-12-31T18:11:32.009Z,22.70
2018-12-31T18:16:24.188Z,27.00
2018-12-31T18:21:16.405Z,31.10
2018-12-31T18:26:08.547Z,22.30
2018-12-31T18:31:00.648Z,23.80
2018-12-31T18:35:52.784Z,23.40
2018-12-31T18:40:46.853Z,28.10
2018-12-31T18:45:38.526Z,26.00
2018-12-31T18:50:30.524Z,26.30
2018-12-31T18:55:22.713Z,22.80
2018-12-31T19:00:15.218Z,28.20
2018-12-31T19:05:07.085Z,22.60
2018-12-31T19:09:59.514Z,26.40
2018-12-31T19:14:52.577Z,28.60
2018-12-31T19:19:44.619Z,33.00
2018-12-31T19:24:36.763Z,29.30
2018-12-31T19:29:28.870Z,38.10
2018-12-31T19:34:20.905Z,34.40
2018-12-31T19:39:13.175Z,33.20
2018-12-31T19:44:05.048Z,37.10
2018-12-31T19:48:57.237Z,53.00
2018-12-31T19:53:49.174Z,38.60
2018-12-31T19:58:41.307Z,28.40
2018-12-31T20:03:34.595Z,32.70
2018-12-31T20:08:26.841Z,32.00
2018-12-31T20:13:18.953Z,40.60
2018-12-31T20:18:10.993Z,32.90
2018-12-31T20:23:03.187Z,29.20
2018-12-31T20:27:55.269Z,28.30
2018-12-31T20:32:47.415Z,25.20
2018-12-31T20:37:40.247Z,28.70
2018-12-31T20:42:32.661Z,32.90
2018-12-31T20:47:24.869Z,29.30
2018-12-31T20:52:16.888Z,26.70
2018-12-31T20:57:09.029Z,24.00
2018-12-31T21:02:01.298Z,26.90
2018-12-31T21:06:53.609Z,28.80
2018-12-31T21:11:46.625Z,20.90
2018-12-31T21:16:38.916Z,33.60
2018-12-31T21:21:31.095Z,28.30
2018-12-31T21:26:23.217Z,35.20
2018-12-31T21:31:15.313Z,27.10
2018-12-31T21:36:07.331Z,31.40
2018-12-31T21:40:59.614Z,28.70
2018-12-31T21:45:51.870Z,29.30
2018-12-31T21:50:44.024Z,33.20
2018-12-31T21:55:36.074Z,28.10
2018-12-31T22:00:29.473Z,34.60
2018-12-31T22:05:23.702Z,33.00
2018-12-31T22:10:15.771Z,32.00
2018-12-31T22:15:07.892Z,31.70
2018-12-31T22:19:59.901Z,31.10
2018-12-31T22:24:52.185Z,30.60
2018-12-31T22:29:46.404Z,36.50
2018-12-31T22:34:37.985Z,38.40
2018-12-31T22:39:30.385Z,36.30
2018-12-31T22:44:22.469Z,30.80
2018-12-31T22:49:14.972Z,31.10
2018-12-31T22:54:06.993Z,29.30
2018-12-31T22:58:59.002Z,34.00
2018-12-31T23:03:52.152Z,89.20
2018-12-31T23:08:44.305Z,294.00
2018-12-31T23:13:36.319Z,285.70
2018-12-31T23:18:28.362Z,215.80
2018-12-31T23:23:20.415Z,225.30
2018-12-31T23:28:12.538Z,174.80
2018-12-31T23:33:04.872Z,113.40
2018-12-31T23:37:56.935Z,79.60
2018-12-31T23:42:49.074Z,46.80
2018-12-31T23:47:41.337Z,50.00
2018-12-31T23:52:34.350Z,51.80
2018-12-31T23:57:26.473Z,57.30
